Time;durP1;ratioP1;P1;durP2;ratioP2;P2;SDS_P1;SDS_P2;PMS_P1;PMS_P2;Temp;Humidity;BMP_temperature;BMP_pressure;BME280_temperature;BME280_humidity;BME280_pressure;Samples;Min_cycle;Max_cycle;Signal;HPM_P1;HPM_P2
2021/09/05 00:01:26;;;;;;;8.00;6.30;;;;;;;17.25;71.76;96849.09;4999682;28;20180;-63
2021/09/05 00:03:51;;;;;;;7.23;5.90;;;;;;;17.26;71.55;96845.38;5010908;28;20240;-62
2021/09/05 00:06:16;;;;;;;8.47;6.43;;;;;;;17.26;71.98;96840.09;5005278;28;20195;-62
2021/09/05 00:08:45;;;;;;;8.67;6.13;;;;;;;17.23;71.92;96842.47;4997989;28;20637;-62
2021/09/05 00:11:11;;;;;;;9.17;7.03;;;;;;;17.12;72.32;96832.94;5000671;28;20233;-62
2021/09/05 00:13:37;;;;;;;10.83;6.57;;;;;;;17.27;71.58;96849.63;5007759;28;20195;-62
2021/09/05 00:16:02;;;;;;;7.33;6.30;;;;;;;17.30;71.92;96840.34;4997246;28;20188;-62
2021/09/05 00:18:28;;;;;;;7.77;6.30;;;;;;;17.10;72.04;96843.81;5010476;28;20227;-62
2021/09/05 00:20:53;;;;;;;9.67;7.30;;;;;;;17.18;72.21;96850.41;4999215;28;20191;-62
2021/09/05 00:23:19;;;;;;;8.00;6.63;;;;;;;17.02;73.27;96839.03;5011769;28;20219;-62
2021/09/05 00:25:44;;;;;;;8.30;6.47;;;;;;;16.90;73.49;96846.44;5004246;28;20257;-62
2021/09/05 00:28:09;;;;;;;7.87;6.60;;;;;;;16.84;73.98;96840.38;5006052;28;20271;-62
2021/09/05 00:30:35;;;;;;;9.67;7.00;;;;;;;16.98;73.35;96830.84;5008603;28;20334;-62
2021/09/05 00:33:02;;;;;;;11.17;7.20;;;;;;;17.10;72.98;96835.88;4999125;28;20184;-62
2021/09/05 00:35:27;;;;;;;12.53;7.00;;;;;;;17.01;72.99;96840.09;5010835;28;20184;-62
2021/09/05 00:37:53;;;;;;;9.20;6.73;;;;;;;16.91;73.20;96829.50;5003716;28;20309;-62
2021/09/05 00:40:18;;;;;;;8.10;6.50;;;;;;;16.76;74.08;96840.09;5007340;28;20259;-64
2021/09/05 00:42:44;;;;;;;8.03;6.90;;;;;;;16.68;74.68;96830.81;5000704;28;20196;-62
2021/09/05 00:45:10;;;;;;;9.17;7.03;;;;;;;16.74;74.52;96837.72;5010678;28;20350;-63
2021/09/05 00:47:36;;;;;;;11.83;7.53;;;;;;;16.74;74.46;96843.00;5000853;28;20580;-62
2021/09/05 00:50:03;;;;;;;9.43;6.73;;;;;;;16.70;74.63;96841.97;5007033;28;20279;-62
2021/09/05 00:52:29;;;;;;;9.30;6.93;;;;;;;16.60;74.92;96836.66;5006730;28;20187;-62
2021/09/05 00:54:55;;;;;;;7.73;6.87;;;;;;;16.80;73.94;96836.66;4999297;28;20183;-62
2021/09/05 00:57:22;;;;;;;9.97;6.53;;;;;;;16.59;74.59;96840.34;5009485;28;20190;-63
2021/09/05 00:59:50;;;;;;;9.67;7.00;;;;;;;16.51;75.35;96841.63;5003934;28;20211;-62
2021/09/05 01:02:16;;;;;;;8.47;6.30;;;;;;;16.47;75.57;96837.94;5002726;28;20226;-62
2021/09/05 01:04:42;;;;;;;8.57;5.93;;;;;;;16.38;76.24;96846.66;5011279;28;20282;-62
2021/09/05 01:07:08;;;;;;;9.50;6.63;;;;;;;16.38;76.47;96847.44;4997447;28;20244;-62
2021/09/05 01:09:34;;;;;;;8.60;6.77;;;;;;;16.38;76.39;96844.81;5009074;28;20188;-62
2021/09/05 01:12:00;;;;;;;8.53;6.83;;;;;;;16.39;76.45;96849.00;5005364;28;20198;-62
2021/09/05 01:14:26;;;;;;;11.17;7.53;;;;;;;16.36;76.43;96846.09;4998830;28;20267;-63
2021/09/05 01:16:52;;;;;;;8.77;7.23;;;;;;;16.39;76.46;96848.22;5011368;28;20184;-62
2021/09/05 01:19:20;;;;;;;8.93;6.47;;;;;;;16.39;76.52;96843.72;5001548;28;20192;-62
2021/09/05 01:21:47;;;;;;;8.37;6.97;;;;;;;16.35;76.82;96844.50;5004911;28;20648;-62
2021/09/05 01:24:13;;;;;;;10.03;6.80;;;;;;;16.39;76.36;96842.91;5002925;28;20180;-62
2021/09/05 01:26:42;;;;;;;10.27;6.73;;;;;;;16.36;76.28;96849.53;5011243;28;20514;-63
2021/09/05 01:29:08;;;;;;;9.33;7.30;;;;;;;16.37;76.56;96855.63;4999817;28;20604;-63
2021/09/05 01:31:38;;;;;;;10.63;7.60;;;;;;;16.44;76.14;96850.91;5005873;28;20247;-62
2021/09/05 01:34:04;;;;;;;8.97;7.07;;;;;;;16.42;76.19;96856.44;5006193;28;20679;-62
2021/09/05 01:36:29;;;;;;;10.37;7.67;;;;;;;16.31;76.96;96848.75;4999158;28;20271;-62
2021/09/05 01:38:55;;;;;;;11.10;7.53;;;;;;;16.21;77.24;96855.59;5010476;28;20219;-62
2021/09/05 01:41:20;;;;;;;9.23;6.77;;;;;;;16.08;78.14;96858.72;4999511;28;20187;-62
2021/09/05 01:43:45;;;;;;;9.33;7.47;;;;;;;16.16;77.62;96860.84;5006189;28;20192;-62
2021/09/05 01:46:11;;;;;;;10.30;7.77;;;;;;;15.97;78.49;96861.59;5007036;28;20237;-62
2021/09/05 01:48:37;;;;;;;8.10;6.67;;;;;;;16.04;78.29;96864.78;4997483;28;20196;-63
2021/09/05 01:51:02;;;;;;;9.43;7.00;;;;;;;16.11;77.94;96862.69;4995924;28;20192;-63
2021/09/05 01:53:27;;;;;;;10.57;7.30;;;;;;;16.06;78.20;96857.38;5009029;28;20541;-62
2021/09/05 01:55:53;;;;;;;11.43;7.63;;;;;;;16.04;78.29;96862.16;5001723;28;20222;-62
2021/09/05 01:58:18;;;;;;;9.53;7.03;;;;;;;16.12;77.93;96865.06;5003643;28;20192;-62
2021/09/05 02:00:44;;;;;;;9.43;7.33;;;;;;;16.05;77.94;96869.03;5008495;28;20191;-62
2021/09/05 02:03:09;;;;;;;9.93;7.27;;;;;;;15.97;78.53;96870.31;5010676;28;20180;-67
2021/09/05 02:05:35;;;;;;;12.07;7.83;;;;;;;15.89;78.88;96872.66;4997020;28;20203;-62
2021/09/05 02:08:00;;;;;;;9.27;7.07;;;;;;;15.84;79.19;96875.25;5010645;28;20191;-63
2021/09/05 02:10:26;;;;;;;9.73;7.03;;;;;;;15.76;79.72;96873.94;5007745;28;20223;-62
2021/09/05 02:12:51;;;;;;;10.67;8.07;;;;;;;15.98;78.76;96873.75;5001377;28;20192;-62
2021/09/05 02:15:17;;;;;;;10.93;7.53;;;;;;;15.99;78.65;96876.16;5008351;28;20224;-62
2021/09/05 02:17:42;;;;;;;9.70;7.60;;;;;;;15.79;79.33;96879.47;4998255;28;20183;-63
2021/09/05 02:20:08;;;;;;;10.13;8.10;;;;;;;15.56;80.84;96879.09;5006679;28;20184;-63
2021/09/05 02:22:34;;;;;;;11.83;7.87;;;;;;;15.69;80.26;96886.56;5004336;28;20241;-62
2021/09/05 02:24:59;;;;;;;10.30;7.53;;;;;;;15.78;79.84;96880.53;4999984;28;20215;-62
2021/09/05 02:27:25;;;;;;;10.47;7.17;;;;;;;15.78;79.64;96875.25;5009758;28;20274;-62
2021/09/05 02:29:51;;;;;;;9.27;6.90;;;;;;;15.68;80.09;96880.47;4997708;28;20180;-62
2021/09/05 02:32:16;;;;;;;12.80;7.73;;;;;;;15.81;79.54;96884.53;5005727;28;20192;-63
2021/09/05 02:34:41;;;;;;;11.67;8.10;;;;;;;15.69;80.29;96887.38;4999011;28;20183;-62
2021/09/05 02:37:09;;;;;;;9.80;7.47;;;;;;;15.79;79.87;96886.63;4995157;28;20640;-63
2021/09/05 02:39:35;;;;;;;11.27;7.60;;;;;;;15.57;81.33;96889.41;5009058;28;20227;-62
2021/09/05 02:42:00;;;;;;;8.93;7.10;;;;;;;15.59;81.32;96889.16;5001027;28;20187;-62
2021/09/05 02:44:25;;;;;;;10.57;7.40;;;;;;;15.56;81.30;96884.38;5002489;28;20187;-62
2021/09/05 02:46:51;;;;;;;9.70;7.57;;;;;;;15.52;82.09;96888.56;5001416;28;20590;-62
2021/09/05 02:49:16;;;;;;;10.87;8.57;;;;;;;15.77;80.79;96889.50;5006600;28;20195;-63
2021/09/05 02:51:42;;;;;;;12.27;8.27;;;;;;;15.57;81.57;96880.69;5002245;28;20675;-62
2021/09/05 02:54:08;;;;;;;10.33;7.90;;;;;;;15.56;81.99;96884.38;5008286;28;20183;-62
2021/09/05 02:56:33;;;;;;;12.30;8.33;;;;;;;15.44;82.58;96876.59;4997945;28;20239;-63
2021/09/05 02:58:59;;;;;;;10.87;8.47;;;;;;;15.52;82.06;96880.66;5009520;28;20194;-63
2021/09/05 03:01:24;;;;;;;10.80;8.10;;;;;;;15.51;82.16;96877.19;4997777;28;20660;-63
2021/09/05 03:03:49;;;;;;;10.90;8.07;;;;;;;15.58;81.75;96884.91;5008888;28;20195;-62
2021/09/05 03:06:15;;;;;;;10.83;8.17;;;;;;;15.61;81.70;96879.09;5001179;28;20334;-62
2021/09/05 03:08:40;;;;;;;12.93;8.80;;;;;;;15.27;83.80;96874.13;4996289;28;20558;-63
2021/09/05 03:11:05;;;;;;;11.60;8.63;;;;;;;15.23;84.10;96877.53;5005817;28;20314;-63
2021/09/05 03:13:31;;;;;;;10.40;8.07;;;;;;;15.30;83.82;96878.91;5002556;28;20615;-62
2021/09/05 03:15:56;;;;;;;11.20;8.73;;;;;;;15.28;84.02;96875.72;4999968;28;20215;-63
2021/09/05 03:18:22;;;;;;;11.87;7.93;;;;;;;15.32;83.43;96879.44;5006519;28;20187;-63
2021/09/05 03:20:47;;;;;;;10.97;7.40;;;;;;;15.37;83.10;96882.13;4998666;28;20175;-62
2021/09/05 03:23:12;;;;;;;10.80;7.17;;;;;;;15.37;82.77;96876.84;5004147;28;20188;-62
2021/09/05 03:25:38;;;;;;;10.60;7.50;;;;;;;15.43;82.31;96884.81;4987865;28;20682;-62
2021/09/05 03:28:03;;;;;;;9.33;7.50;;;;;;;15.42;82.59;96891.94;4997369;28;20207;-63
2021/09/05 03:30:29;;;;;;;9.97;7.60;;;;;;;15.43;82.25;96890.09;5007808;28;20278;-63
2021/09/05 03:32:54;;;;;;;10.10;7.40;;;;;;;15.42;82.29;96899.84;4997637;28;20186;-62
2021/09/05 03:35:19;;;;;;;9.97;7.80;;;;;;;15.43;82.52;96895.38;5001194;28;20188;-62
2021/09/05 03:37:45;;;;;;;10.57;7.20;;;;;;;15.33;82.93;96893.44;5001596;28;20180;-62
2021/09/05 03:40:11;;;;;;;9.93;8.40;;;;;;;15.27;83.12;96887.31;4993732;28;20246;-67
2021/09/05 03:42:36;;;;;;;10.67;7.83;;;;;;;15.41;82.62;96895.63;5007707;28;20220;-62
2021/09/05 03:45:02;;;;;;;12.07;8.17;;;;;;;15.34;83.20;96892.38;5001169;28;20660;-63
2021/09/05 03:47:28;;;;;;;15.90;8.93;;;;;;;15.36;83.09;96893.75;5000847;28;20183;-63
2021/09/05 03:49:54;;;;;;;11.33;8.70;;;;;;;15.33;83.12;96896.88;4999346;28;20651;-62
2021/09/05 03:52:19;;;;;;;11.47;8.17;;;;;;;15.23;83.91;96891.53;5006719;28;20699;-62
2021/09/05 03:54:44;;;;;;;13.10;8.90;;;;;;;15.19;83.98;96893.09;4994724;28;20188;-63
2021/09/05 03:57:10;;;;;;;12.47;8.83;;;;;;;15.23;83.75;96890.72;5008740;28;20235;-62
2021/09/05 03:59:35;;;;;;;11.03;8.07;;;;;;;15.20;83.86;96891.25;5000366;28;20175;-63
2021/09/05 04:02:01;;;;;;;12.57;9.07;;;;;;;15.20;83.62;96894.69;5003671;28;20271;-63
2021/09/05 04:04:26;;;;;;;12.70;8.07;;;;;;;15.15;83.73;96891.22;5010833;28;20234;-63
2021/09/05 04:07:01;;;;;;;12.10;8.73;;;;;;;15.15;83.84;96892.00;5002664;28;20196;-63
2021/09/05 04:12:16;;;;;;;12.57;9.00;;;;;;;14.96;84.73;96898.69;5009552;28;20687;-68
2021/09/05 04:14:42;;;;;;;15.80;10.43;;;;;;;15.18;83.48;96893.34;4996645;28;20187;-62
2021/09/05 04:17:07;;;;;;;13.93;10.10;;;;;;;15.08;83.98;96887.97;5006760;28;20183;-63
2021/09/05 04:19:33;;;;;;;13.10;10.17;;;;;;;15.04;83.80;96895.63;5002296;28;20193;-62
2021/09/05 04:21:59;;;;;;;13.83;10.03;;;;;;;14.91;84.56;96899.47;5012510;28;20229;-63
2021/09/05 04:24:24;;;;;;;14.53;9.77;;;;;;;14.82;85.44;96900.94;5000487;28;20179;-63
2021/09/05 04:26:49;;;;;;;15.27;10.13;;;;;;;14.83;85.37;96899.91;5008191;28;20219;-68
2021/09/05 04:29:16;;;;;;;11.77;9.60;;;;;;;14.78;85.99;96913.06;5006628;28;20294;-63
2021/09/05 04:31:42;;;;;;;15.50;10.23;;;;;;;14.96;84.53;96902.13;5001570;28;20270;-63
2021/09/05 04:34:07;;;;;;;15.90;10.27;;;;;;;14.96;84.34;96907.41;5012230;28;20290;-63
2021/09/05 04:36:33;;;;;;;14.67;10.00;;;;;;;14.91;84.68;96899.47;5000863;28;20262;-62
2021/09/05 04:38:58;;;;;;;13.27;10.33;;;;;;;14.88;84.85;96907.06;5021956;28;20228;-63
2021/09/05 04:41:24;;;;;;;13.50;10.23;;;;;;;15.01;84.21;96906.66;5003051;28;20232;-63
2021/09/05 04:43:49;;;;;;;15.00;10.27;;;;;;;14.82;84.96;96908.84;5010904;28;20195;-63
2021/09/05 04:46:14;;;;;;;15.23;9.63;;;;;;;14.80;85.41;96904.91;4998567;28;20254;-64
2021/09/05 04:48:40;;;;;;;13.63;9.50;;;;;;;14.83;85.10;96907.81;5008619;28;20189;-63
2021/09/05 04:51:06;;;;;;;12.20;8.63;;;;;;;14.90;84.31;96911.06;4998420;28;20636;-63
2021/09/05 04:53:31;;;;;;;11.60;8.60;;;;;;;15.01;84.03;96911.94;5007678;28;20184;-65
2021/09/05 04:55:57;;;;;;;11.43;7.83;;;;;;;14.80;85.32;96915.44;4999983;28;20197;-63
2021/09/05 04:58:22;;;;;;;11.80;8.93;;;;;;;14.81;85.28;96917.84;5011734;28;20195;-62
2021/09/05 05:00:47;;;;;;;11.30;7.60;;;;;;;14.82;85.52;96924.69;5001538;28;20179;-63
2021/09/05 05:03:13;;;;;;;9.63;7.67;;;;;;;14.88;85.26;96933.44;5013709;28;20183;-63
2021/09/05 05:05:39;;;;;;;10.43;7.73;;;;;;;14.99;85.13;96935.13;4998693;28;20286;-66
2021/09/05 05:08:04;;;;;;;10.80;7.67;;;;;;;15.31;83.40;96941.25;5012981;28;20270;-63
2021/09/05 05:10:30;;;;;;;8.93;7.47;;;;;;;15.50;82.60;96948.75;5008552;28;20272;-62
2021/09/05 05:12:55;;;;;;;9.60;7.30;;;;;;;15.63;82.29;96949.16;5005725;28;20548;-62
2021/09/05 05:15:20;;;;;;;9.83;7.37;;;;;;;15.87;80.77;96949.59;5000577;28;20550;-62
2021/09/05 05:17:46;;;;;;;10.20;7.17;;;;;;;16.00;80.48;96953.59;5010901;28;20603;-66
2021/09/05 05:20:12;;;;;;;8.30;6.63;;;;;;;16.18;79.51;96951.31;4998723;28;20610;-63
2021/09/05 05:22:37;;;;;;;8.73;6.33;;;;;;;16.46;77.77;96959.88;5013272;28;20183;-63
2021/09/05 05:25:05;;;;;;;9.73;6.50;;;;;;;16.15;79.13;96965.06;5003633;28;20204;-62
2021/09/05 05:27:31;;;;;;;9.37;6.63;;;;;;;16.32;78.67;96958.78;5005478;28;20191;-63
2021/09/05 05:29:56;;;;;;;9.70;6.37;;;;;;;16.62;77.28;96962.34;4998041;28;20180;-63
2021/09/05 05:32:21;;;;;;;9.33;6.60;;;;;;;16.74;76.40;96964.78;5013144;28;20191;-64
2021/09/05 05:34:47;;;;;;;9.37;6.27;;;;;;;16.81;76.55;96970.63;5003673;28;20183;-63
2021/09/05 05:37:12;;;;;;;8.77;6.43;;;;;;;17.05;75.72;96973.59;4995509;28;20187;-64
2021/09/05 05:39:37;;;;;;;8.77;6.70;;;;;;;17.29;74.24;96969.34;5001976;28;20219;-63
2021/09/05 05:42:03;;;;;;;8.10;6.50;;;;;;;17.43;73.57;96975.75;5001363;28;20234;-63
2021/09/05 05:44:28;;;;;;;8.53;6.03;;;;;;;17.69;71.99;96976.53;5003511;28;20223;-63
2021/09/05 05:46:54;;;;;;;6.47;5.60;;;;;;;17.78;71.74;96971.47;5008259;28;20277;-63
2021/09/05 05:49:19;;;;;;;10.33;5.27;;;;;;;17.83;71.66;96974.16;4997672;28;20204;-64
2021/09/05 05:51:44;;;;;;;7.30;5.60;;;;;;;17.78;70.59;96972.28;5010026;28;20183;-63
2021/09/05 05:54:10;;;;;;;7.67;5.10;;;;;;;17.53;71.88;96980.22;4996511;28;20648;-63
2021/09/05 05:56:35;;;;;;;7.07;5.70;;;;;;;17.41;72.62;96971.75;5005040;28;20222;-61
2021/09/05 05:59:01;;;;;;;8.60;6.07;;;;;;;17.36;73.45;96979.69;4999708;28;20271;-61
2021/09/05 06:01:26;;;;;;;6.83;5.37;;;;;;;17.41;72.78;96980.50;5003562;28;20187;-62
2021/09/05 06:03:52;;;;;;;8.17;6.07;;;;;;;17.66;71.81;96976.28;5003660;28;20180;-62
2021/09/05 06:06:17;;;;;;;7.17;5.50;;;;;;;17.92;70.79;96977.03;5006143;28;20623;-62
2021/09/05 06:08:42;;;;;;;8.43;6.37;;;;;;;18.24;69.46;96977.47;4997673;28;20184;-64
2021/09/05 06:11:08;;;;;;;7.87;5.80;;;;;;;18.28;69.85;96981.19;5010417;28;20184;-61
2021/09/05 06:13:33;;;;;;;6.72;5.30;;;;;;;18.47;68.71;96982.19;5000308;28;20191;-61
2021/09/05 06:15:58;;;;;;;7.57;5.70;;;;;;;18.59;68.43;96979.25;5010405;28;20187;-61
2021/09/05 06:18:24;;;;;;;8.25;5.68;;;;;;;18.60;68.48;96978.19;5006255;28;20273;-62
2021/09/05 06:20:49;;;;;;;8.20;6.15;;;;;;;18.72;67.90;96983.97;4997660;28;20183;-62
2021/09/05 06:23:15;;;;;;;7.22;5.45;;;;;;;18.82;67.08;96975.94;5009861;28;20262;-61
2021/09/05 06:25:40;;;;;;;7.90;6.00;;;;;;;18.94;66.93;96979.06;4999753;28;20198;-61
2021/09/05 06:28:06;;;;;;;7.03;5.57;;;;;;;19.08;66.52;96988.00;5003919;28;20273;-62
2021/09/05 06:30:31;;;;;;;7.00;5.28;;;;;;;19.20;65.39;96985.00;5005929;28;20217;-63
2021/09/05 06:32:56;;;;;;;7.72;5.43;;;;;;;19.30;65.17;96992.09;4997298;28;20652;-63
2021/09/05 06:35:22;;;;;;;5.93;4.70;;;;;;;19.37;64.72;96990.72;5011419;28;20645;-62
2021/09/05 06:37:48;;;;;;;6.05;4.88;;;;;;;19.34;65.08;96996.59;5000498;28;20250;-62
2021/09/05 06:40:13;;;;;;;6.50;5.05;;;;;;;19.59;64.96;97000.97;5003382;28;20240;-62
2021/09/05 06:42:39;;;;;;;6.30;5.18;;;;;;;19.74;65.23;96998.16;5006833;28;20183;-62
2021/09/05 06:45:05;;;;;;;6.65;5.05;;;;;;;19.92;64.90;96997.47;4997337;28;20208;-63
2021/09/05 06:47:30;;;;;;;9.88;5.90;;;;;;;20.10;64.75;96987.19;4994223;28;20267;-62
2021/09/05 06:49:55;;;;;;;7.03;5.30;;;;;;;19.85;65.31;96997.00;5000696;28;20215;-62
2021/09/05 06:52:21;;;;;;;6.13;5.05;;;;;;;20.01;64.99;97002.16;5002008;28;20262;-62
2021/09/05 06:54:46;;;;;;;7.88;5.63;;;;;;;20.09;64.37;97005.03;5007386;28;20191;-65
2021/09/05 06:57:12;;;;;;;9.95;5.85;;;;;;;20.15;64.72;96998.59;4999624;28;20656;-64
2021/09/05 06:59:37;;;;;;;7.15;5.20;;;;;;;19.98;64.49;96998.22;4997549;28;20267;-63
2021/09/05 07:02:02;;;;;;;6.60;5.78;;;;;;;19.99;64.36;96996.34;5009202;28;20194;-63
2021/09/05 07:04:28;;;;;;;7.22;5.05;;;;;;;20.07;63.84;96990.41;5006734;28;20191;-63
2021/09/05 07:06:53;;;;;;;9.18;5.55;;;;;;;20.21;63.37;97004.66;5006713;28;20210;-64
2021/09/05 07:09:18;;;;;;;6.85;5.40;;;;;;;20.30;62.18;97000.28;5003772;28;20640;-64
2021/09/05 07:11:44;;;;;;;7.72;5.40;;;;;;;20.41;61.47;97001.78;4995536;28;20192;-64
2021/09/05 07:14:09;;;;;;;8.82;5.40;;;;;;;20.46;60.61;97006.25;5009218;28;20193;-71
2021/09/05 07:16:35;;;;;;;6.43;5.65;;;;;;;20.51;61.21;97006.19;4996823;28;20278;-64
2021/09/05 07:19:00;;;;;;;7.75;5.63;;;;;;;20.34;63.12;97012.75;5004403;28;20536;-64
2021/09/05 07:21:26;;;;;;;5.82;4.88;;;;;;;20.35;63.25;97010.91;5004571;28;20281;-64
2021/09/05 07:23:51;;;;;;;6.57;4.35;;;;;;;20.67;63.57;97015.59;5004381;28;20626;-63
2021/09/05 07:26:16;;;;;;;10.18;5.90;;;;;;;20.93;61.37;97019.53;5009631;28;20270;-64
2021/09/05 07:28:42;;;;;;;5.57;4.93;;;;;;;21.19;60.35;97022.66;5000913;28;20188;-65
2021/09/05 07:31:07;;;;;;;6.15;5.00;;;;;;;21.53;59.27;97014.41;5000734;28;20266;-64
2021/09/05 07:33:33;;;;;;;6.00;4.97;;;;;;;21.55;59.01;97026.41;5001267;28;20295;-64
2021/09/05 07:35:58;;;;;;;4.88;4.35;;;;;;;21.70;58.42;97029.91;5007954;28;20318;-64
2021/09/05 07:38:24;;;;;;;5.82;4.40;;;;;;;21.78;56.99;97022.03;5001457;28;20195;-64
2021/09/05 07:40:50;;;;;;;5.97;4.95;;;;;;;22.00;56.85;97028.63;4999194;28;20211;-64
2021/09/05 07:43:15;;;;;;;5.40;4.25;;;;;;;22.06;57.29;97028.25;5003316;28;20633;-64
2021/09/05 07:45:41;;;;;;;6.53;4.93;;;;;;;22.05;57.05;97031.22;5005479;28;20207;-64
2021/09/05 07:48:06;;;;;;;5.78;4.60;;;;;;;22.02;56.43;97029.91;4998526;28;20191;-64
2021/09/05 07:50:32;;;;;;;5.53;4.63;;;;;;;22.14;56.42;97030.25;5013753;28;20183;-63
2021/09/05 07:52:57;;;;;;;6.25;4.63;;;;;;;22.14;56.18;97029.44;5007397;28;20639;-66
2021/09/05 07:55:22;;;;;;;5.45;4.63;;;;;;;22.29;55.97;97037.19;5009942;28;20195;-64
2021/09/05 07:57:48;;;;;;;6.10;4.63;;;;;;;22.40;56.25;97038.59;5010269;28;20191;-64
2021/09/05 08:00:14;;;;;;;6.18;5.20;;;;;;;22.48;55.80;97037.91;4999944;28;20275;-64
2021/09/05 08:02:40;;;;;;;5.38;4.60;;;;;;;22.48;56.20;97053.13;5010990;28;20235;-65
2021/09/05 08:05:10;;;;;;;5.13;4.45;;;;;;;22.59;55.49;97035.81;5003327;28;20235;-64
2021/09/05 08:07:36;;;;;;;5.78;4.47;;;;;;;22.86;55.12;97040.38;5001153;28;20183;-65
2021/09/05 08:10:02;;;;;;;5.07;4.53;;;;;;;22.71;54.42;97039.63;4999873;28;20632;-64
2021/09/05 08:12:28;;;;;;;5.65;3.95;;;;;;;22.86;54.80;97038.50;5003187;28;20634;-64
2021/09/05 08:14:53;;;;;;;5.22;4.72;;;;;;;22.97;54.03;97044.44;5001208;28;20227;-63
2021/09/05 08:17:19;;;;;;;6.07;4.25;;;;;;;23.07;53.92;97046.91;5011222;28;20183;-64
2021/09/05 08:19:46;;;;;;;5.55;4.97;;;;;;;22.96;54.30;97048.97;5000921;28;20262;-63
2021/09/05 08:22:12;;;;;;;7.47;4.63;;;;;;;22.92;54.40;97047.22;5007001;28;20188;-65
2021/09/05 08:24:37;;;;;;;5.10;4.30;;;;;;;22.99;54.27;97045.72;5003290;28;20288;-63
2021/09/05 08:27:04;;;;;;;5.90;4.65;;;;;;;23.13;53.76;97051.81;5011232;28;20222;-64
2021/09/05 08:29:30;;;;;;;5.72;5.13;;;;;;;23.30;52.86;97050.41;5002479;28;20606;-64
2021/09/05 08:31:55;;;;;;;5.45;4.47;;;;;;;23.12;53.92;97052.16;5009642;28;20263;-65
2021/09/05 08:34:20;;;;;;;4.82;4.32;;;;;;;23.19;53.80;97055.97;5005417;28;20179;-62
2021/09/05 08:36:46;;;;;;;5.35;4.30;;;;;;;23.18;53.41;97054.38;5002312;28;20558;-63
2021/09/05 08:39:11;;;;;;;5.30;4.05;;;;;;;23.23;53.23;97056.19;5006931;28;20232;-66
2021/09/05 08:41:38;;;;;;;7.55;5.38;;;;;;;23.17;53.05;97055.50;5010137;28;20637;-62
2021/09/05 08:44:03;;;;;;;5.65;4.28;;;;;;;23.06;53.20;97051.47;5011027;28;20241;-62
2021/09/05 08:46:29;;;;;;;7.43;4.43;;;;;;;22.99;54.04;97056.41;5007057;28;20208;-63
2021/09/05 08:48:55;;;;;;;8.65;4.75;;;;;;;23.18;53.47;97057.06;5007221;28;20186;-63
2021/09/05 08:51:20;;;;;;;4.30;3.85;;;;;;;23.13;54.06;97059.84;4999225;28;20194;-63
2021/09/05 08:53:45;;;;;;;4.97;4.47;;;;;;;23.12;53.92;97066.31;5009035;28;20187;-63
2021/09/05 08:56:11;;;;;;;4.70;4.20;;;;;;;22.91;54.51;97064.34;5007213;28;20196;-63
2021/09/05 08:58:36;;;;;;;5.82;4.78;;;;;;;22.92;53.97;97068.59;5010334;28;20193;-63
2021/09/05 09:01:28;;;;;;;5.28;4.30;;;;;;;22.78;54.60;97064.06;5006914;28;20237;-63
2021/09/05 09:04:09;;;;;;;6.00;4.93;;;;;;;22.83;54.48;97063.16;5005205;28;20242;-63
2021/09/05 09:06:39;;;;;;;5.68;4.15;;;;;;;22.64;55.75;97070.44;5003410;28;20667;-63
2021/09/05 09:09:06;;;;;;;5.40;3.85;;;;;;;22.72;55.61;97075.94;5010920;28;20191;-63
2021/09/05 09:11:51;;;;;;;4.70;4.07;;;;;;;22.95;55.69;97068.00;4998710;28;20262;-62
2021/09/05 09:14:17;;;;;;;7.43;4.20;;;;;;;22.65;55.92;97070.16;5009168;28;20191;-62
2021/09/05 09:16:43;;;;;;;7.18;4.30;;;;;;;22.78;54.43;97079.31;4999866;28;20222;-64
2021/09/05 09:19:24;;;;;;;5.72;4.07;;;;;;;22.91;55.20;97069.69;5007373;28;20211;-63
2021/09/05 09:21:49;;;;;;;6.40;5.20;;;;;;;22.42;52.20;97078.34;5012320;28;20241;-62
2021/09/05 09:24:18;;;;;;;5.57;3.95;;;;;;;22.19;54.63;97080.88;5010638;28;20640;-63
2021/09/05 09:27:02;;;;;;;4.60;3.90;;;;;;;22.37;53.15;97077.38;5002963;28;20259;-63
2021/09/05 09:29:28;;;;;;;7.20;4.30;;;;;;;22.83;54.11;97079.22;4996798;28;20259;-62
2021/09/05 09:31:59;;;;;;;4.60;4.05;;;;;;;22.77;51.34;97078.50;5009152;28;20275;-62
2021/09/05 09:34:25;;;;;;;4.05;3.65;;;;;;;23.00;51.17;97076.72;5011945;28;20203;-62
2021/09/05 09:36:58;;;;;;;6.90;3.75;;;;;;;22.95;50.75;97078.72;5000518;28;20233;-62
2021/09/05 09:39:27;;;;;;;5.93;3.88;;;;;;;22.83;50.47;97081.88;5005513;28;20231;-62
2021/09/05 09:41:52;;;;;;;4.43;3.55;;;;;;;22.66;50.80;97082.44;5004484;28;20194;-62
2021/09/05 09:44:18;;;;;;;4.25;3.75;;;;;;;22.39;50.98;97075.19;4997780;28;20184;-62
2021/09/05 09:46:44;;;;;;;3.97;3.30;;;;;;;22.74;50.24;97079.09;5006275;28;20199;-65
2021/09/05 09:49:13;;;;;;;3.83;3.40;;;;;;;23.11;49.79;97080.78;5006359;28;20180;-63
2021/09/05 09:51:40;;;;;;;4.00;3.53;;;;;;;23.07;50.12;97079.00;4994637;28;20559;-63
2021/09/05 09:54:07;;;;;;;4.60;3.70;;;;;;;23.30;50.89;97077.16;5002839;28;20180;-62
2021/09/05 09:56:32;;;;;;;3.90;3.50;;;;;;;23.50;49.75;97076.75;5009140;28;20273;-62
2021/09/05 09:59:02;;;;;;;3.65;3.28;;;;;;;23.44;49.86;97075.25;5002845;28;20219;-62
2021/09/05 10:01:29;;;;;;;4.13;3.13;;;;;;;23.44;50.42;97067.22;5004933;28;20523;-62
2021/09/05 10:03:59;;;;;;;4.57;3.50;;;;;;;23.39;49.18;97070.81;5004542;28;20532;-62
2021/09/05 10:06:26;;;;;;;3.80;3.45;;;;;;;23.49;47.77;97069.81;5010020;28;20218;-62
2021/09/05 10:09:01;;;;;;;3.72;3.42;;;;;;;23.51;48.26;97060.41;4996898;28;20555;-63
2021/09/05 10:11:26;;;;;;;6.40;3.85;;;;;;;23.18;48.34;97061.66;5004475;28;20229;-62
2021/09/05 10:13:52;;;;;;;4.57;3.47;;;;;;;23.55;48.53;97065.94;5000625;28;20199;-63
2021/09/05 10:16:18;;;;;;;3.85;3.40;;;;;;;23.94;48.19;97063.38;4995453;28;20192;-62
2021/09/05 10:18:46;;;;;;;4.03;3.55;;;;;;;24.03;46.54;97066.09;5009416;28;20187;-63
2021/09/05 10:21:18;;;;;;;3.42;3.13;;;;;;;23.75;47.57;97067.31;5002418;28;20195;-62
2021/09/05 10:23:50;;;;;;;3.60;3.30;;;;;;;24.05;46.48;97061.25;5007131;28;20191;-63
2021/09/05 10:26:16;;;;;;;3.53;3.13;;;;;;;23.95;45.54;97059.63;5002837;28;20254;-63
2021/09/05 10:28:44;;;;;;;4.30;3.38;;;;;;;24.17;46.26;97058.00;5002130;28;20667;-63
2021/09/05 10:31:11;;;;;;;3.97;3.22;;;;;;;24.17;45.24;97055.31;5000306;28;20184;-64
2021/09/05 10:33:44;;;;;;;4.18;3.33;;;;;;;23.90;44.70;97057.06;4994653;28;20187;-63
2021/09/05 10:36:12;;;;;;;4.20;3.45;;;;;;;23.59;46.02;97056.19;5008504;28;20183;-63
2021/09/05 10:38:43;;;;;;;4.90;3.40;;;;;;;23.70;46.72;97052.19;4993988;28;20220;-64
2021/09/05 10:41:24;;;;;;;3.80;3.40;;;;;;;23.87;45.54;97056.88;4997735;28;20179;-71
2021/09/05 10:43:50;;;;;;;3.83;3.40;;;;;;;24.04;45.87;97055.09;5000134;28;20204;-63
2021/09/05 10:46:26;;;;;;;3.78;3.40;;;;;;;24.25;46.94;97054.59;5009837;28;20234;-64
2021/09/05 10:48:57;;;;;;;3.65;3.20;;;;;;;24.23;46.31;97052.25;4994897;28;20179;-64
2021/09/05 10:51:35;;;;;;;4.60;3.60;;;;;;;23.68;46.14;97054.38;4996130;28;20267;-63
2021/09/05 10:54:19;;;;;;;3.92;3.53;;;;;;;23.05;47.14;97054.44;5009001;28;20186;-64
2021/09/05 10:56:45;;;;;;;7.38;3.80;;;;;;;23.02;48.55;97049.66;4994431;28;20184;-64
2021/09/05 10:59:16;;;;;;;4.03;3.20;;;;;;;23.26;47.91;97054.78;5001268;28;20639;-64
2021/09/05 11:01:48;;;;;;;5.13;3.67;;;;;;;23.30;48.15;97055.75;5005800;28;20194;-64
2021/09/05 11:04:16;;;;;;;5.75;3.78;;;;;;;23.11;48.49;97054.03;4998571;28;20188;-66
2021/09/05 11:06:45;;;;;;;3.60;3.30;;;;;;;22.73;49.24;97045.47;4997968;28;20195;-64
2021/09/05 11:12:00;;;;;;;3.95;3.22;;;;;;;23.58;44.82;97055.41;5006158;28;20282;-64
2021/09/05 11:14:35;;;;;;;3.65;2.90;;;;;;;23.34;43.85;97051.41;5003899;28;20222;-64
2021/09/05 11:17:19;;;;;;;3.00;2.65;;;;;;;23.04;42.77;97053.63;5004628;28;20178;-64
2021/09/05 11:19:52;;;;;;;4.07;3.05;;;;;;;23.44;41.59;97051.97;5001211;28;20187;-65
2021/09/05 11:22:29;;;;;;;3.90;2.90;;;;;;;23.85;42.10;97059.84;5000474;28;20270;-64
2021/09/05 11:25:31;;;;;;;3.53;2.72;;;;;;;23.96;42.28;97055.06;4995487;28;20222;-64
2021/09/05 11:28:07;;;;;;;3.42;3.13;;;;;;;24.14;41.05;97058.59;5006882;28;20473;-64
2021/09/05 11:30:38;;;;;;;4.68;3.22;;;;;;;24.04;40.52;97056.97;5008215;28;20652;-64
2021/09/05 11:33:08;;;;;;;3.20;2.60;;;;;;;24.24;40.90;97053.81;4999956;28;20172;-64
2021/09/05 11:35:51;;;;;;;3.10;2.80;;;;;;;24.47;40.73;97045.72;5003307;28;20636;-64